sensor_id;sensor_type;location;lat;lon;timestamp;P1;durP1;ratioP1;P2;durP2;ratioP2
18748;SDS011;9503;53.560;10.246;2023-11-22T00:02:07;3.53;;;2.57;;
18748;SDS011;9503;53.560;10.246;2023-11-22T00:04:34;5.00;;;2.77;;
18748;SDS011;9503;53.560;10.246;2023-11-22T00:07:01;3.87;;;2.47;;
18748;SDS011;9503;53.560;10.246;2023-11-22T00:09:27;4.40;;;2.40;;
18748;SDS011;9503;53.560;10.246;2023-11-22T00:11:54;4.93;;;2.20;;
18748;SDS011;9503;53.560;10.246;2023-11-22T00:14:22;3.13;;;2.30;;
18748;SDS011;9503;53.560;10.246;2023-11-22T00:16:48;3.80;;;2.47;;
18748;SDS011;9503;53.560;10.246;2023-11-22T00:19:15;4.40;;;2.60;;
18748;SDS011;9503;53.560;10.246;2023-11-22T00:21:43;3.33;;;2.40;;
18748;SDS011;9503;53.560;10.246;2023-11-22T00:24:10;4.03;;;2.80;;
18748;SDS011;9503;53.560;10.246;2023-11-22T00:26:36;3.80;;;2.13;;
18748;SDS011;9503;53.560;10.246;2023-11-22T00:29:03;2.13;;;1.93;;
18748;SDS011;9503;53.560;10.246;2023-11-22T00:31:31;4.27;;;2.67;;
18748;SDS011;9503;53.560;10.246;2023-11-22T00:33:58;4.27;;;3.03;;
18748;SDS011;9503;53.560;10.246;2023-11-22T00:36:24;5.93;;;2.63;;
18748;SDS011;9503;53.560;10.246;2023-11-22T00:38:51;4.53;;;2.50;;
18748;SDS011;9503;53.560;10.246;2023-11-22T00:41:17;4.77;;;3.10;;
18748;SDS011;9503;53.560;10.246;2023-11-22T00:43:43;4.27;;;2.93;;
18748;SDS011;9503;53.560;10.246;2023-11-22T00:46:10;5.37;;;3.10;;
18748;SDS011;9503;53.560;10.246;2023-11-22T00:48:38;4.63;;;2.77;;
18748;SDS011;9503;53.560;10.246;2023-11-22T00:51:04;4.63;;;2.93;;
18748;SDS011;9503;53.560;10.246;2023-11-22T00:53:34;4.40;;;2.70;;
18748;SDS011;9503;53.560;10.246;2023-11-22T00:56:02;4.80;;;2.60;;
18748;SDS011;9503;53.560;10.246;2023-11-22T00:58:29;6.40;;;3.17;;
18748;SDS011;9503;53.560;10.246;2023-11-22T01:00:55;7.47;;;3.30;;
18748;SDS011;9503;53.560;10.246;2023-11-22T01:03:22;5.67;;;3.00;;
18748;SDS011;9503;53.560;10.246;2023-11-22T01:05:50;5.83;;;2.90;;
18748;SDS011;9503;53.560;10.246;2023-11-22T01:08:17;4.30;;;3.13;;
18748;SDS011;9503;53.560;10.246;2023-11-22T01:10:44;8.03;;;3.07;;
18748;SDS011;9503;53.560;10.246;2023-11-22T01:13:11;3.33;;;2.53;;
18748;SDS011;9503;53.560;10.246;2023-11-22T01:15:39;8.60;;;2.90;;
18748;SDS011;9503;53.560;10.246;2023-11-22T01:18:06;6.07;;;3.03;;
18748;SDS011;9503;53.560;10.246;2023-11-22T01:20:33;4.20;;;2.90;;
18748;SDS011;9503;53.560;10.246;2023-11-22T01:23:01;6.87;;;3.47;;
18748;SDS011;9503;53.560;10.246;2023-11-22T01:25:27;5.23;;;2.90;;
18748;SDS011;9503;53.560;10.246;2023-11-22T01:27:54;8.53;;;3.50;;
18748;SDS011;9503;53.560;10.246;2023-11-22T01:30:21;6.23;;;3.23;;
18748;SDS011;9503;53.560;10.246;2023-11-22T01:32:47;6.43;;;3.50;;
18748;SDS011;9503;53.560;10.246;2023-11-22T01:35:14;6.20;;;3.80;;
18748;SDS011;9503;53.560;10.246;2023-11-22T01:37:41;5.47;;;3.10;;
18748;SDS011;9503;53.560;10.246;2023-11-22T01:40:10;7.70;;;3.50;;
18748;SDS011;9503;53.560;10.246;2023-11-22T01:42:37;4.73;;;3.30;;
18748;SDS011;9503;53.560;10.246;2023-11-22T01:45:05;4.47;;;3.27;;
18748;SDS011;9503;53.560;10.246;2023-11-22T01:47:31;6.67;;;3.57;;
18748;SDS011;9503;53.560;10.246;2023-11-22T01:49:58;5.43;;;3.20;;
18748;SDS011;9503;53.560;10.246;2023-11-22T01:52:25;7.30;;;3.00;;
18748;SDS011;9503;53.560;10.246;2023-11-22T01:54:52;6.27;;;3.27;;
18748;SDS011;9503;53.560;10.246;2023-11-22T01:57:21;5.13;;;3.20;;
18748;SDS011;9503;53.560;10.246;2023-11-22T01:59:47;5.47;;;3.43;;
18748;SDS011;9503;53.560;10.246;2023-11-22T02:02:14;4.07;;;2.80;;
18748;SDS011;9503;53.560;10.246;2023-11-22T02:04:40;3.70;;;2.87;;
18748;SDS011;9503;53.560;10.246;2023-11-22T02:07:08;5.70;;;3.23;;
18748;SDS011;9503;53.560;10.246;2023-11-22T02:09:35;5.60;;;3.30;;
18748;SDS011;9503;53.560;10.246;2023-11-22T02:12:02;6.57;;;3.83;;
18748;SDS011;9503;53.560;10.246;2023-11-22T02:14:30;5.20;;;3.33;;
18748;SDS011;9503;53.560;10.246;2023-11-22T02:16:56;11.30;;;4.50;;
18748;SDS011;9503;53.560;10.246;2023-11-22T02:19:23;9.97;;;3.83;;
18748;SDS011;9503;53.560;10.246;2023-11-22T02:21:50;5.93;;;3.40;;
18748;SDS011;9503;53.560;10.246;2023-11-22T02:24:18;4.80;;;3.10;;
18748;SDS011;9503;53.560;10.246;2023-11-22T02:26:45;7.13;;;3.63;;
18748;SDS011;9503;53.560;10.246;2023-11-22T02:29:12;6.30;;;3.37;;
18748;SDS011;9503;53.560;10.246;2023-11-22T02:31:39;6.60;;;3.30;;
18748;SDS011;9503;53.560;10.246;2023-11-22T02:34:09;6.33;;;3.40;;
18748;SDS011;9503;53.560;10.246;2023-11-22T02:36:35;5.50;;;3.57;;
18748;SDS011;9503;53.560;10.246;2023-11-22T02:39:02;7.43;;;2.97;;
18748;SDS011;9503;53.560;10.246;2023-11-22T02:41:30;6.90;;;3.87;;
18748;SDS011;9503;53.560;10.246;2023-11-22T02:43:58;8.43;;;4.00;;
18748;SDS011;9503;53.560;10.246;2023-11-22T02:46:25;11.93;;;4.30;;
18748;SDS011;9503;53.560;10.246;2023-11-22T02:48:51;9.13;;;4.07;;
18748;SDS011;9503;53.560;10.246;2023-11-22T02:51:19;7.17;;;4.30;;
18748;SDS011;9503;53.560;10.246;2023-11-22T02:53:46;8.13;;;3.93;;
18748;SDS011;9503;53.560;10.246;2023-11-22T02:56:13;6.40;;;3.93;;
18748;SDS011;9503;53.560;10.246;2023-11-22T02:58:41;6.63;;;4.17;;
18748;SDS011;9503;53.560;10.246;2023-11-22T03:01:08;8.47;;;4.17;;
18748;SDS011;9503;53.560;10.246;2023-11-22T03:03:34;6.87;;;4.17;;
18748;SDS011;9503;53.560;10.246;2023-11-22T03:06:01;7.17;;;3.97;;
18748;SDS011;9503;53.560;10.246;2023-11-22T03:08:28;8.00;;;4.23;;
18748;SDS011;9503;53.560;10.246;2023-11-22T03:10:54;9.07;;;4.20;;
18748;SDS011;9503;53.560;10.246;2023-11-22T03:13:21;8.53;;;4.90;;
18748;SDS011;9503;53.560;10.246;2023-11-22T03:15:49;8.83;;;4.57;;
18748;SDS011;9503;53.560;10.246;2023-11-22T03:18:15;7.57;;;4.53;;
18748;SDS011;9503;53.560;10.246;2023-11-22T03:20:43;11.10;;;5.40;;
18748;SDS011;9503;53.560;10.246;2023-11-22T03:23:10;9.00;;;5.23;;
18748;SDS011;9503;53.560;10.246;2023-11-22T03:25:36;8.90;;;4.80;;
18748;SDS011;9503;53.560;10.246;2023-11-22T03:28:03;8.37;;;4.80;;
18748;SDS011;9503;53.560;10.246;2023-11-22T03:30:30;10.73;;;5.20;;
18748;SDS011;9503;53.560;10.246;2023-11-22T03:32:58;9.63;;;5.17;;
18748;SDS011;9503;53.560;10.246;2023-11-22T03:35:24;9.47;;;4.70;;
18748;SDS011;9503;53.560;10.246;2023-11-22T03:37:51;11.73;;;5.80;;
18748;SDS011;9503;53.560;10.246;2023-11-22T03:40:17;9.10;;;5.53;;
18748;SDS011;9503;53.560;10.246;2023-11-22T03:42:45;12.77;;;5.30;;
18748;SDS011;9503;53.560;10.246;2023-11-22T03:45:11;13.97;;;6.70;;
18748;SDS011;9503;53.560;10.246;2023-11-22T03:47:39;12.40;;;5.33;;
18748;SDS011;9503;53.560;10.246;2023-11-22T03:50:07;12.60;;;5.70;;
18748;SDS011;9503;53.560;10.246;2023-11-22T03:52:35;8.57;;;4.93;;
18748;SDS011;9503;53.560;10.246;2023-11-22T03:55:02;10.77;;;5.77;;
18748;SDS011;9503;53.560;10.246;2023-11-22T03:57:29;13.97;;;6.83;;
18748;SDS011;9503;53.560;10.246;2023-11-22T03:59:55;9.50;;;5.87;;
18748;SDS011;9503;53.560;10.246;2023-11-22T04:02:22;11.63;;;5.67;;
18748;SDS011;9503;53.560;10.246;2023-11-22T04:04:49;11.23;;;5.37;;
18748;SDS011;9503;53.560;10.246;2023-11-22T04:07:17;10.33;;;5.70;;
18748;SDS011;9503;53.560;10.246;2023-11-22T04:09:44;9.07;;;5.63;;
18748;SDS011;9503;53.560;10.246;2023-11-22T04:12:10;10.67;;;5.93;;
18748;SDS011;9503;53.560;10.246;2023-11-22T04:14:37;11.27;;;5.37;;
18748;SDS011;9503;53.560;10.246;2023-11-22T04:17:04;9.83;;;5.33;;
18748;SDS011;9503;53.560;10.246;2023-11-22T04:19:31;9.87;;;5.47;;
18748;SDS011;9503;53.560;10.246;2023-11-22T04:21:57;8.30;;;4.60;;
18748;SDS011;9503;53.560;10.246;2023-11-22T04:24:25;11.00;;;6.00;;
18748;SDS011;9503;53.560;10.246;2023-11-22T04:26:52;13.03;;;5.67;;
18748;SDS011;9503;53.560;10.246;2023-11-22T04:29:18;12.90;;;5.60;;
18748;SDS011;9503;53.560;10.246;2023-11-22T04:31:45;12.50;;;6.00;;
18748;SDS011;9503;53.560;10.246;2023-11-22T04:34:11;12.87;;;6.10;;
18748;SDS011;9503;53.560;10.246;2023-11-22T04:36:38;16.20;;;5.77;;
18748;SDS011;9503;53.560;10.246;2023-11-22T04:39:05;13.27;;;5.87;;
18748;SDS011;9503;53.560;10.246;2023-11-22T04:41:33;12.63;;;6.33;;
18748;SDS011;9503;53.560;10.246;2023-11-22T04:44:00;12.93;;;6.33;;
18748;SDS011;9503;53.560;10.246;2023-11-22T04:46:27;18.93;;;5.53;;
18748;SDS011;9503;53.560;10.246;2023-11-22T04:48:54;10.37;;;5.53;;
18748;SDS011;9503;53.560;10.246;2023-11-22T04:51:20;11.07;;;6.20;;
18748;SDS011;9503;53.560;10.246;2023-11-22T04:53:47;11.00;;;6.03;;
18748;SDS011;9503;53.560;10.246;2023-11-22T04:56:14;11.77;;;5.77;;
18748;SDS011;9503;53.560;10.246;2023-11-22T04:58:43;10.23;;;5.53;;
18748;SDS011;9503;53.560;10.246;2023-11-22T05:01:09;9.67;;;5.60;;
18748;SDS011;9503;53.560;10.246;2023-11-22T05:03:36;7.90;;;4.67;;
18748;SDS011;9503;53.560;10.246;2023-11-22T05:06:03;9.57;;;5.30;;
18748;SDS011;9503;53.560;10.246;2023-11-22T05:08:30;9.27;;;4.90;;
18748;SDS011;9503;53.560;10.246;2023-11-22T05:10:56;8.07;;;4.47;;
18748;SDS011;9503;53.560;10.246;2023-11-22T05:13:24;11.27;;;5.37;;
18748;SDS011;9503;53.560;10.246;2023-11-22T05:15:51;11.77;;;4.83;;
18748;SDS011;9503;53.560;10.246;2023-11-22T05:18:18;10.70;;;4.80;;
18748;SDS011;9503;53.560;10.246;2023-11-22T05:20:45;13.70;;;5.63;;
18748;SDS011;9503;53.560;10.246;2023-11-22T05:23:13;10.27;;;5.43;;
18748;SDS011;9503;53.560;10.246;2023-11-22T05:25:40;10.97;;;5.13;;
18748;SDS011;9503;53.560;10.246;2023-11-22T05:28:06;8.93;;;4.93;;
18748;SDS011;9503;53.560;10.246;2023-11-22T05:30:33;9.40;;;5.27;;
18748;SDS011;9503;53.560;10.246;2023-11-22T05:33:01;11.50;;;5.27;;
18748;SDS011;9503;53.560;10.246;2023-11-22T05:35:28;10.27;;;5.10;;
18748;SDS011;9503;53.560;10.246;2023-11-22T05:37:54;10.37;;;5.03;;
18748;SDS011;9503;53.560;10.246;2023-11-22T05:40:22;8.67;;;4.40;;
18748;SDS011;9503;53.560;10.246;2023-11-22T05:42:49;12.00;;;5.80;;
18748;SDS011;9503;53.560;10.246;2023-11-22T05:45:15;12.07;;;5.17;;
18748;SDS011;9503;53.560;10.246;2023-11-22T05:47:42;12.40;;;5.63;;
18748;SDS011;9503;53.560;10.246;2023-11-22T05:50:10;10.50;;;5.70;;
18748;SDS011;9503;53.560;10.246;2023-11-22T05:52:37;12.27;;;6.20;;
18748;SDS011;9503;53.560;10.246;2023-11-22T05:55:04;15.07;;;6.80;;
18748;SDS011;9503;53.560;10.246;2023-11-22T05:57:33;17.23;;;8.00;;
18748;SDS011;9503;53.560;10.246;2023-11-22T06:00:00;13.57;;;7.20;;
18748;SDS011;9503;53.560;10.246;2023-11-22T06:02:26;12.20;;;6.53;;
18748;SDS011;9503;53.560;10.246;2023-11-22T06:04:53;14.53;;;6.27;;
18748;SDS011;9503;53.560;10.246;2023-11-22T06:07:21;10.13;;;5.73;;
18748;SDS011;9503;53.560;10.246;2023-11-22T06:09:48;13.53;;;6.23;;
18748;SDS011;9503;53.560;10.246;2023-11-22T06:12:14;11.70;;;6.00;;
18748;SDS011;9503;53.560;10.246;2023-11-22T06:14:41;13.60;;;6.53;;
18748;SDS011;9503;53.560;10.246;2023-11-22T06:17:08;10.17;;;6.07;;
18748;SDS011;9503;53.560;10.246;2023-11-22T06:19:34;13.73;;;6.23;;
18748;SDS011;9503;53.560;10.246;2023-11-22T06:22:01;13.37;;;6.07;;
18748;SDS011;9503;53.560;10.246;2023-11-22T06:24:29;11.23;;;5.37;;
18748;SDS011;9503;53.560;10.246;2023-11-22T06:26:56;12.97;;;5.90;;
18748;SDS011;9503;53.560;10.246;2023-11-22T06:29:22;12.67;;;5.97;;
18748;SDS011;9503;53.560;10.246;2023-11-22T06:31:49;13.63;;;6.80;;
18748;SDS011;9503;53.560;10.246;2023-11-22T06:34:16;14.13;;;6.40;;
18748;SDS011;9503;53.560;10.246;2023-11-22T06:36:42;9.37;;;5.47;;
18748;SDS011;9503;53.560;10.246;2023-11-22T06:39:09;12.73;;;6.37;;
18748;SDS011;9503;53.560;10.246;2023-11-22T06:41:40;12.90;;;6.37;;
18748;SDS011;9503;53.560;10.246;2023-11-22T06:44:06;13.90;;;6.10;;
18748;SDS011;9503;53.560;10.246;2023-11-22T06:46:34;13.37;;;6.33;;
18748;SDS011;9503;53.560;10.246;2023-11-22T06:49:00;9.53;;;5.33;;
18748;SDS011;9503;53.560;10.246;2023-11-22T06:51:27;10.73;;;5.47;;
18748;SDS011;9503;53.560;10.246;2023-11-22T06:53:53;11.47;;;5.53;;
18748;SDS011;9503;53.560;10.246;2023-11-22T06:56:20;9.87;;;5.80;;
18748;SDS011;9503;53.560;10.246;2023-11-22T06:58:48;11.10;;;5.27;;
18748;SDS011;9503;53.560;10.246;2023-11-22T07:01:16;14.17;;;6.63;;
18748;SDS011;9503;53.560;10.246;2023-11-22T07:03:42;13.37;;;5.50;;
18748;SDS011;9503;53.560;10.246;2023-11-22T07:06:09;9.97;;;5.27;;
18748;SDS011;9503;53.560;10.246;2023-11-22T07:08:36;15.40;;;6.50;;
18748;SDS011;9503;53.560;10.246;2023-11-22T07:11:02;9.80;;;5.57;;
18748;SDS011;9503;53.560;10.246;2023-11-22T07:13:31;15.23;;;6.07;;
18748;SDS011;9503;53.560;10.246;2023-11-22T07:16:00;12.53;;;5.77;;
18748;SDS011;9503;53.560;10.246;2023-11-22T07:18:26;9.97;;;5.37;;
18748;SDS011;9503;53.560;10.246;2023-11-22T07:20:53;9.40;;;4.93;;
18748;SDS011;9503;53.560;10.246;2023-11-22T07:23:20;8.63;;;4.90;;
18748;SDS011;9503;53.560;10.246;2023-11-22T07:25:50;9.30;;;4.60;;
18748;SDS011;9503;53.560;10.246;2023-11-22T07:28:17;9.80;;;5.37;;
18748;SDS011;9503;53.560;10.246;2023-11-22T07:30:44;15.27;;;5.67;;
18748;SDS011;9503;53.560;10.246;2023-11-22T07:33:12;9.43;;;5.33;;
18748;SDS011;9503;53.560;10.246;2023-11-22T07:35:38;12.83;;;5.70;;
18748;SDS011;9503;53.560;10.246;2023-11-22T07:38:05;9.43;;;4.70;;
18748;SDS011;9503;53.560;10.246;2023-11-22T07:40:33;7.70;;;4.57;;
18748;SDS011;9503;53.560;10.246;2023-11-22T07:43:00;13.33;;;5.57;;
18748;SDS011;9503;53.560;10.246;2023-11-22T07:45:28;11.73;;;5.90;;
18748;SDS011;9503;53.560;10.246;2023-11-22T07:47:54;12.57;;;6.60;;
18748;SDS011;9503;53.560;10.246;2023-11-22T07:50:25;9.13;;;5.63;;
18748;SDS011;9503;53.560;10.246;2023-11-22T07:52:52;11.13;;;5.73;;
18748;SDS011;9503;53.560;10.246;2023-11-22T07:55:19;9.80;;;5.57;;
18748;SDS011;9503;53.560;10.246;2023-11-22T07:57:47;10.60;;;5.70;;
18748;SDS011;9503;53.560;10.246;2023-11-22T08:00:15;9.53;;;5.63;;
18748;SDS011;9503;53.560;10.246;2023-11-22T08:02:44;12.13;;;5.13;;
18748;SDS011;9503;53.560;10.246;2023-11-22T08:05:11;9.50;;;5.23;;
18748;SDS011;9503;53.560;10.246;2023-11-22T08:07:41;8.97;;;4.50;;
18748;SDS011;9503;53.560;10.246;2023-11-22T08:10:10;8.67;;;4.70;;
18748;SDS011;9503;53.560;10.246;2023-11-22T08:12:43;11.33;;;5.77;;
18748;SDS011;9503;53.560;10.246;2023-11-22T08:15:11;12.93;;;7.07;;
18748;SDS011;9503;53.560;10.246;2023-11-22T08:17:39;10.93;;;6.83;;
18748;SDS011;9503;53.560;10.246;2023-11-22T08:20:06;16.10;;;7.67;;
18748;SDS011;9503;53.560;10.246;2023-11-22T08:22:37;18.10;;;8.80;;
18748;SDS011;9503;53.560;10.246;2023-11-22T08:25:06;15.73;;;7.77;;
18748;SDS011;9503;53.560;10.246;2023-11-22T08:27:33;12.37;;;6.83;;
18748;SDS011;9503;53.560;10.246;2023-11-22T08:30:00;12.77;;;6.90;;
18748;SDS011;9503;53.560;10.246;2023-11-22T08:32:30;11.60;;;5.70;;
18748;SDS011;9503;53.560;10.246;2023-11-22T08:34:56;13.47;;;7.30;;
18748;SDS011;9503;53.560;10.246;2023-11-22T08:37:23;11.50;;;6.50;;
18748;SDS011;9503;53.560;10.246;2023-11-22T08:39:50;12.63;;;6.70;;
18748;SDS011;9503;53.560;10.246;2023-11-22T08:42:18;17.47;;;7.27;;
18748;SDS011;9503;53.560;10.246;2023-11-22T08:44:44;15.50;;;6.53;;
18748;SDS011;9503;53.560;10.246;2023-11-22T08:47:11;13.80;;;6.53;;
18748;SDS011;9503;53.560;10.246;2023-11-22T08:49:38;10.43;;;5.70;;
18748;SDS011;9503;53.560;10.246;2023-11-22T08:52:05;10.43;;;6.07;;
18748;SDS011;9503;53.560;10.246;2023-11-22T08:54:32;17.10;;;6.50;;
18748;SDS011;9503;53.560;10.246;2023-11-22T08:56:59;11.00;;;6.27;;
18748;SDS011;9503;53.560;10.246;2023-11-22T08:59:27;12.50;;;6.50;;
18748;SDS011;9503;53.560;10.246;2023-11-22T09:01:54;12.07;;;6.50;;
18748;SDS011;9503;53.560;10.246;2023-11-22T09:04:20;9.97;;;5.50;;
18748;SDS011;9503;53.560;10.246;2023-11-22T09:06:49;14.20;;;6.93;;
18748;SDS011;9503;53.560;10.246;2023-11-22T09:09:16;12.43;;;6.30;;
18748;SDS011;9503;53.560;10.246;2023-11-22T09:11:42;10.50;;;6.73;;
18748;SDS011;9503;53.560;10.246;2023-11-22T09:14:09;11.53;;;5.60;;
18748;SDS011;9503;53.560;10.246;2023-11-22T09:16:37;13.13;;;6.00;;
18748;SDS011;9503;53.560;10.246;2023-11-22T09:19:05;10.83;;;5.60;;
18748;SDS011;9503;53.560;10.246;2023-11-22T09:21:32;10.67;;;5.80;;
18748;SDS011;9503;53.560;10.246;2023-11-22T09:24:00;12.70;;;6.20;;
18748;SDS011;9503;53.560;10.246;2023-11-22T09:26:27;13.13;;;6.73;;
18748;SDS011;9503;53.560;10.246;2023-11-22T09:28:54;12.10;;;6.10;;
18748;SDS011;9503;53.560;10.246;2023-11-22T09:31:21;13.23;;;6.53;;
18748;SDS011;9503;53.560;10.246;2023-11-22T09:33:48;13.57;;;6.40;;
18748;SDS011;9503;53.560;10.246;2023-11-22T09:36:15;13.00;;;6.33;;
18748;SDS011;9503;53.560;10.246;2023-11-22T09:38:43;13.27;;;7.60;;
18748;SDS011;9503;53.560;10.246;2023-11-22T09:41:09;12.77;;;7.17;;
18748;SDS011;9503;53.560;10.246;2023-11-22T09:43:36;11.47;;;6.17;;
18748;SDS011;9503;53.560;10.246;2023-11-22T09:46:05;12.07;;;6.40;;
18748;SDS011;9503;53.560;10.246;2023-11-22T09:48:34;15.53;;;8.40;;
18748;SDS011;9503;53.560;10.246;2023-11-22T09:51:05;20.90;;;8.47;;
18748;SDS011;9503;53.560;10.246;2023-11-22T09:53:36;20.83;;;9.80;;
18748;SDS011;9503;53.560;10.246;2023-11-22T09:56:07;22.97;;;8.00;;
18748;SDS011;9503;53.560;10.246;2023-11-22T09:58:35;19.17;;;8.00;;
18748;SDS011;9503;53.560;10.246;2023-11-22T10:01:03;15.97;;;8.13;;
18748;SDS011;9503;53.560;10.246;2023-11-22T10:03:32;18.33;;;8.63;;
18748;SDS011;9503;53.560;10.246;2023-11-22T10:06:01;14.70;;;7.53;;
18748;SDS011;9503;53.560;10.246;2023-11-22T10:08:30;16.60;;;7.30;;
18748;SDS011;9503;53.560;10.246;2023-11-22T10:11:00;15.13;;;7.53;;
18748;SDS011;9503;53.560;10.246;2023-11-22T10:13:29;18.20;;;8.10;;
18748;SDS011;9503;53.560;10.246;2023-11-22T10:15:55;14.60;;;6.33;;
18748;SDS011;9503;53.560;10.246;2023-11-22T10:18:35;17.03;;;6.63;;
18748;SDS011;9503;53.560;10.246;2023-11-22T10:21:15;14.60;;;7.23;;
18748;SDS011;9503;53.560;10.246;2023-11-22T10:23:47;13.90;;;7.53;;
18748;SDS011;9503;53.560;10.246;2023-11-22T10:26:13;16.63;;;7.10;;
18748;SDS011;9503;53.560;10.246;2023-11-22T10:28:41;16.90;;;7.50;;
18748;SDS011;9503;53.560;10.246;2023-11-22T10:31:09;10.20;;;6.53;;
18748;SDS011;9503;53.560;10.246;2023-11-22T10:33:38;16.17;;;6.90;;
18748;SDS011;9503;53.560;10.246;2023-11-22T10:36:05;20.83;;;8.27;;
18748;SDS011;9503;53.560;10.246;2023-11-22T10:38:33;10.87;;;6.50;;
18748;SDS011;9503;53.560;10.246;2023-11-22T10:41:04;11.40;;;6.67;;
18748;SDS011;9503;53.560;10.246;2023-11-22T10:43:32;13.87;;;7.57;;
18748;SDS011;9503;53.560;10.246;2023-11-22T10:46:01;13.17;;;6.60;;
18748;SDS011;9503;53.560;10.246;2023-11-22T10:48:29;11.90;;;5.87;;
18748;SDS011;9503;53.560;10.246;2023-11-22T10:50:58;16.30;;;6.37;;
18748;SDS011;9503;53.560;10.246;2023-11-22T10:53:30;13.23;;;6.70;;
18748;SDS011;9503;53.560;10.246;2023-11-22T10:56:01;8.37;;;5.23;;
18748;SDS011;9503;53.560;10.246;2023-11-22T10:58:36;10.33;;;5.40;;
18748;SDS011;9503;53.560;10.246;2023-11-22T11:01:11;10.50;;;5.67;;
18748;SDS011;9503;53.560;10.246;2023-11-22T11:03:38;15.97;;;6.40;;
18748;SDS011;9503;53.560;10.246;2023-11-22T11:06:10;12.60;;;5.60;;
18748;SDS011;9503;53.560;10.246;2023-11-22T11:08:40;8.23;;;4.67;;
18748;SDS011;9503;53.560;10.246;2023-11-22T11:11:11;7.67;;;4.27;;
18748;SDS011;9503;53.560;10.246;2023-11-22T11:13:40;10.27;;;3.90;;
18748;SDS011;9503;53.560;10.246;2023-11-22T11:16:08;10.77;;;4.20;;
18748;SDS011;9503;53.560;10.246;2023-11-22T11:18:35;6.80;;;3.50;;
18748;SDS011;9503;53.560;10.246;2023-11-22T11:21:07;5.77;;;3.53;;
18748;SDS011;9503;53.560;10.246;2023-11-22T11:23:37;6.57;;;3.80;;
18748;SDS011;9503;53.560;10.246;2023-11-22T11:26:09;5.87;;;3.30;;
18748;SDS011;9503;53.560;10.246;2023-11-22T11:28:43;10.77;;;4.43;;
18748;SDS011;9503;53.560;10.246;2023-11-22T11:31:10;4.93;;;3.43;;
18748;SDS011;9503;53.560;10.246;2023-11-22T11:33:52;6.30;;;3.73;;
18748;SDS011;9503;53.560;10.246;2023-11-22T11:36:21;6.00;;;3.47;;
18748;SDS011;9503;53.560;10.246;2023-11-22T11:38:50;8.53;;;3.93;;
18748;SDS011;9503;53.560;10.246;2023-11-22T11:41:19;7.00;;;4.47;;
18748;SDS011;9503;53.560;10.246;2023-11-22T11:43:51;7.87;;;3.83;;
18748;SDS011;9503;53.560;10.246;2023-11-22T11:46:18;6.20;;;3.57;;
18748;SDS011;9503;53.560;10.246;2023-11-22T11:48:48;8.13;;;3.60;;
18748;SDS011;9503;53.560;10.246;2023-11-22T11:51:15;9.43;;;4.57;;
18748;SDS011;9503;53.560;10.246;2023-11-22T11:53:42;7.20;;;4.07;;
18748;SDS011;9503;53.560;10.246;2023-11-22T11:56:09;8.67;;;3.60;;
18748;SDS011;9503;53.560;10.246;2023-11-22T11:58:38;7.43;;;3.67;;
18748;SDS011;9503;53.560;10.246;2023-11-22T12:01:05;7.40;;;3.83;;
18748;SDS011;9503;53.560;10.246;2023-11-22T12:03:32;6.63;;;3.70;;
18748;SDS011;9503;53.560;10.246;2023-11-22T12:05:58;6.50;;;3.53;;
18748;SDS011;9503;53.560;10.246;2023-11-22T12:08:25;4.23;;;3.07;;
18748;SDS011;9503;53.560;10.246;2023-11-22T12:10:55;4.37;;;3.43;;
18748;SDS011;9503;53.560;10.246;2023-11-22T12:13:24;4.50;;;2.87;;
18748;SDS011;9503;53.560;10.246;2023-11-22T12:15:52;5.03;;;3.23;;
18748;SDS011;9503;53.560;10.246;2023-11-22T12:18:19;2.97;;;2.67;;
18748;SDS011;9503;53.560;10.246;2023-11-22T12:20:53;6.20;;;2.90;;
18748;SDS011;9503;53.560;10.246;2023-11-22T12:23:21;5.10;;;3.10;;
18748;SDS011;9503;53.560;10.246;2023-11-22T12:25:48;3.07;;;2.33;;
18748;SDS011;9503;53.560;10.246;2023-11-22T12:28:16;6.63;;;2.30;;
18748;SDS011;9503;53.560;10.246;2023-11-22T12:30:42;5.87;;;2.60;;
18748;SDS011;9503;53.560;10.246;2023-11-22T12:33:12;3.40;;;2.40;;
18748;SDS011;9503;53.560;10.246;2023-11-22T12:35:42;2.37;;;2.17;;
18748;SDS011;9503;53.560;10.246;2023-11-22T12:38:09;6.50;;;2.57;;
18748;SDS011;9503;53.560;10.246;2023-11-22T12:40:37;3.63;;;2.93;;
18748;SDS011;9503;53.560;10.246;2023-11-22T12:43:04;4.30;;;2.80;;
18748;SDS011;9503;53.560;10.246;2023-11-22T12:45:31;3.43;;;2.30;;
18748;SDS011;9503;53.560;10.246;2023-11-22T12:48:10;3.40;;;2.43;;
18748;SDS011;9503;53.560;10.246;2023-11-22T12:50:48;5.67;;;2.63;;
18748;SDS011;9503;53.560;10.246;2023-11-22T12:53:17;3.47;;;2.70;;
18748;SDS011;9503;53.560;10.246;2023-11-22T12:55:46;4.10;;;2.80;;
18748;SDS011;9503;53.560;10.246;2023-11-22T12:58:14;3.23;;;2.47;;
18748;SDS011;9503;53.560;10.246;2023-11-22T13:00:41;2.60;;;2.27;;
18748;SDS011;9503;53.560;10.246;2023-11-22T13:03:08;7.03;;;2.50;;
18748;SDS011;9503;53.560;10.246;2023-11-22T13:05:37;3.67;;;2.20;;
18748;SDS011;9503;53.560;10.246;2023-11-22T13:08:04;5.63;;;2.70;;
18748;SDS011;9503;53.560;10.246;2023-11-22T13:10:31;3.67;;;2.43;;
18748;SDS011;9503;53.560;10.246;2023-11-22T13:12:58;4.53;;;2.20;;
18748;SDS011;9503;53.560;10.246;2023-11-22T13:15:26;4.03;;;2.33;;
18748;SDS011;9503;53.560;10.246;2023-11-22T13:17:52;4.30;;;2.40;;
18748;SDS011;9503;53.560;10.246;2023-11-22T13:20:21;2.70;;;2.40;;
18748;SDS011;9503;53.560;10.246;2023-11-22T13:22:50;2.93;;;2.47;;
18748;SDS011;9503;53.560;10.246;2023-11-22T13:25:16;4.10;;;2.63;;
18748;SDS011;9503;53.560;10.246;2023-11-22T13:27:44;4.47;;;2.67;;
18748;SDS011;9503;53.560;10.246;2023-11-22T13:30:11;3.07;;;1.93;;
18748;SDS011;9503;53.560;10.246;2023-11-22T13:32:39;2.90;;;1.90;;
18748;SDS011;9503;53.560;10.246;2023-11-22T13:35:08;2.90;;;2.13;;
18748;SDS011;9503;53.560;10.246;2023-11-22T13:37:39;5.13;;;1.77;;
18748;SDS011;9503;53.560;10.246;2023-11-22T13:40:10;5.57;;;2.70;;
18748;SDS011;9503;53.560;10.246;2023-11-22T13:42:40;5.47;;;2.30;;
18748;SDS011;9503;53.560;10.246;2023-11-22T13:45:08;3.87;;;2.10;;
18748;SDS011;9503;53.560;10.246;2023-11-22T13:47:35;2.27;;;1.70;;
18748;SDS011;9503;53.560;10.246;2023-11-22T13:50:02;2.43;;;1.97;;
18748;SDS011;9503;53.560;10.246;2023-11-22T13:52:29;4.27;;;2.10;;
18748;SDS011;9503;53.560;10.246;2023-11-22T13:54:57;3.53;;;1.90;;
18748;SDS011;9503;53.560;10.246;2023-11-22T13:57:25;2.80;;;1.97;;
18748;SDS011;9503;53.560;10.246;2023-11-22T13:59:52;4.80;;;2.23;;
18748;SDS011;9503;53.560;10.246;2023-11-22T14:02:19;4.27;;;2.00;;
18748;SDS011;9503;53.560;10.246;2023-11-22T14:04:46;2.87;;;1.80;;
18748;SDS011;9503;53.560;10.246;2023-11-22T14:07:12;4.90;;;2.33;;
18748;SDS011;9503;53.560;10.246;2023-11-22T14:09:39;3.30;;;2.27;;
18748;SDS011;9503;53.560;10.246;2023-11-22T14:12:05;2.07;;;1.60;;
18748;SDS011;9503;53.560;10.246;2023-11-22T14:14:34;2.13;;;1.90;;
18748;SDS011;9503;53.560;10.246;2023-11-22T14:17:00;2.43;;;1.70;;
18748;SDS011;9503;53.560;10.246;2023-11-22T14:19:27;2.20;;;1.70;;
18748;SDS011;9503;53.560;10.246;2023-11-22T14:21:53;4.13;;;1.70;;
18748;SDS011;9503;53.560;10.246;2023-11-22T14:24:20;2.90;;;1.90;;
18748;SDS011;9503;53.560;10.246;2023-11-22T14:26:47;1.77;;;1.67;;
18748;SDS011;9503;53.560;10.246;2023-11-22T14:29:14;2.47;;;2.27;;
18748;SDS011;9503;53.560;10.246;2023-11-22T14:31:42;3.23;;;1.77;;
18748;SDS011;9503;53.560;10.246;2023-11-22T14:34:09;2.90;;;1.63;;
18748;SDS011;9503;53.560;10.246;2023-11-22T14:36:37;2.80;;;1.83;;
18748;SDS011;9503;53.560;10.246;2023-11-22T14:39:04;3.90;;;2.10;;
18748;SDS011;9503;53.560;10.246;2023-11-22T14:41:32;3.70;;;2.63;;
18748;SDS011;9503;53.560;10.246;2023-11-22T14:44:00;3.47;;;2.10;;
18748;SDS011;9503;53.560;10.246;2023-11-22T14:46:26;2.73;;;2.20;;